Time;durP1;ratioP1;P1;durP2;ratioP2;P2;SDS_P1;SDS_P2;PMS_P1;PMS_P2;Temp;Humidity;BMP_temperature;BMP_pressure;BME280_temperature;BME280_humidity;BME280_pressure;Samples;Min_cycle;Max_cycle;Signal;HPM_P1;HPM_P2
2022/01/03 00:01:33;;;;;;;7.45;2.88;;;;;;;9.38;100.00;98948.56;5077425;28;20097;-77
2022/01/03 00:04:17;;;;;;;5.57;2.97;;;;;;;9.16;100.00;98907.47;5077443;28;20048;-77
2022/01/03 00:07:03;;;;;;;6.05;2.95;;;;;;;9.41;100.00;98945.84;5078078;28;20044;-77
2022/01/03 00:09:47;;;;;;;5.03;2.50;;;;;;;9.46;100.00;98941.31;5078062;28;20463;-77
2022/01/03 00:12:33;;;;;;;5.88;2.53;;;;;;;9.33;100.00;98922.59;5077239;28;20044;-77
2022/01/03 00:15:20;;;;;;;4.80;2.50;;;;;;;9.42;100.00;98926.63;5063101;28;20044;-76
2022/01/03 00:18:05;;;;;;;7.07;3.72;;;;;;;9.37;100.00;98921.56;5077191;28;20036;-77
2022/01/03 00:20:58;;;;;;;9.18;2.75;;;;;;;9.36;100.00;98925.09;5077077;28;20056;-77
2022/01/03 00:23:51;;;;;;;5.40;2.50;;;;;;;9.40;100.00;98918.84;5062873;28;20040;-77
2022/01/03 00:26:38;;;;;;;4.20;2.10;;;;;;;9.44;100.00;98920.44;5048823;28;20139;-77
2022/01/03 00:29:27;;;;;;;6.85;2.58;;;;;;;9.42;100.00;98914.41;5077552;28;20040;-77
2022/01/03 00:32:12;;;;;;;4.60;1.98;;;;;;;9.54;100.00;98911.38;5076769;28;20040;-77
2022/01/03 00:34:58;;;;;;;3.45;2.20;;;;;;;9.61;100.00;98917.25;5062751;28;20056;-77
2022/01/03 00:37:45;;;;;;;3.47;2.05;;;;;;;9.61;100.00;98922.47;5077404;28;20109;-77
2022/01/03 00:40:30;;;;;;;3.78;1.95;;;;;;;9.66;100.00;98925.78;5076655;28;20043;-77
2022/01/03 00:43:16;;;;;;;5.00;2.00;;;;;;;9.64;100.00;98919.75;5062705;28;20040;-77
2022/01/03 00:46:00;;;;;;;4.18;2.25;;;;;;;9.53;100.00;98916.69;5076586;28;20044;-77
2022/01/03 00:48:45;;;;;;;3.60;2.20;;;;;;;9.51;100.00;98908.03;5076558;28;20353;-77
2022/01/03 00:51:30;;;;;;;4.95;2.22;;;;;;;9.54;100.00;98915.75;5076304;28;20396;-78
2022/01/03 00:54:14;;;;;;;8.10;2.97;;;;;;;9.44;100.00;98896.06;5062240;28;20044;-77
2022/01/03 00:57:04;;;;;;;5.03;2.22;;;;;;;9.55;100.00;98917.44;5077111;28;20044;-77
2022/01/03 00:59:59;;;;;;;4.57;2.15;;;;;;;9.56;100.00;98898.28;5077115;28;20040;-77
2022/01/03 01:03:00;;;;;;;5.18;2.17;;;;;;;9.55;100.00;98909.63;5076157;28;20037;-77
2022/01/03 01:05:50;;;;;;;3.95;1.98;;;;;;;9.47;100.00;98911.66;5076078;28;20045;-77
2022/01/03 01:08:36;;;;;;;3.78;2.15;;;;;;;9.33;100.00;98917.38;5061817;28;20463;-77
2022/01/03 01:11:29;;;;;;;4.32;2.63;;;;;;;9.41;100.00;98911.88;5061949;28;20044;-77
2022/01/03 01:14:14;;;;;;;4.50;2.15;;;;;;;9.34;100.00;98917.28;5075964;28;20036;-77
2022/01/03 01:16:59;;;;;;;7.13;2.25;;;;;;;9.15;100.00;98916.22;5075970;28;20070;-77
2022/01/03 01:19:45;;;;;;;4.53;2.08;;;;;;;9.12;100.00;98903.25;5076615;28;20360;-77
2022/01/03 01:22:31;;;;;;;9.77;3.63;;;;;;;9.26;100.00;98913.22;5075886;28;20201;-77
2022/01/03 01:28:04;;;;;;;6.45;2.67;;;;;;;9.24;100.00;98900.22;5075888;28;20052;-76
2022/01/03 01:30:54;;;;;;;6.25;2.83;;;;;;;9.11;100.00;98893.72;5076661;28;20037;-76
2022/01/03 01:33:42;;;;;;;6.05;3.38;;;;;;;9.01;100.00;98884.47;5075627;28;20107;-77
2022/01/03 01:36:28;;;;;;;8.32;3.53;;;;;;;9.04;100.00;98884.38;5076261;28;20045;-77
2022/01/03 01:39:15;;;;;;;6.10;3.13;;;;;;;9.01;100.00;98887.09;5076304;28;20353;-77
2022/01/03 01:42:04;;;;;;;6.68;3.45;;;;;;;8.91;100.00;98885.69;5061828;28;20051;-76
2022/01/03 01:44:53;;;;;;;9.65;3.50;;;;;;;8.77;100.00;98873.91;5061953;28;20388;-77
2022/01/03 01:47:40;;;;;;;7.35;3.88;;;;;;;8.79;100.00;98872.13;5061732;28;20044;-77
2022/01/03 01:50:27;;;;;;;6.65;3.20;;;;;;;8.78;100.00;98870.41;5061419;28;20037;-77
2022/01/03 01:53:21;;;;;;;8.88;2.95;;;;;;;8.69;100.00;98873.31;5075404;28;20051;-77
2022/01/03 01:56:19;;;;;;;8.38;4.18;;;;;;;8.57;100.00;98871.09;5061314;28;20051;-77
2022/01/03 01:59:18;;;;;;;6.13;3.08;;;;;;;8.66;100.00;98873.41;5075362;28;20330;-77
2022/01/03 02:02:06;;;;;;;7.38;3.92;;;;;;;8.59;100.00;98864.09;5061204;28;20131;-77
2022/01/03 02:05:17;;;;;;;8.07;3.88;;;;;;;8.71;100.00;98865.44;5075463;28;20072;-77
2022/01/03 02:08:15;;;;;;;6.45;3.40;;;;;;;8.77;100.00;98863.47;5076042;28;20341;-77
2022/01/03 02:11:14;;;;;;;6.38;3.33;;;;;;;8.80;100.00;98852.94;5061163;28;20317;-77
2022/01/03 02:13:59;;;;;;;8.45;4.15;;;;;;;8.88;100.00;98842.25;5075273;28;20066;-77
2022/01/03 02:16:46;;;;;;;7.20;3.97;;;;;;;8.85;100.00;98837.97;5074648;28;20118;-77
2022/01/03 02:19:37;;;;;;;8.00;3.90;;;;;;;8.90;100.00;98832.59;5075154;28;20048;-77
2022/01/03 02:22:22;;;;;;;10.02;3.97;;;;;;;8.89;100.00;98818.69;5075817;28;20045;-77
2022/01/03 02:25:16;;;;;;;10.95;4.78;;;;;;;8.86;100.00;98816.16;5061866;28;20043;-77
2022/01/03 02:28:00;;;;;;;10.18;4.05;;;;;;;8.69;100.00;98807.22;5075033;28;20495;-77
2022/01/03 02:30:47;;;;;;;8.55;3.80;;;;;;;8.79;100.00;98806.00;5075011;28;20048;-77
2022/01/03 02:33:33;;;;;;;7.45;3.85;;;;;;;8.77;100.00;98802.56;5060987;28;20094;-77
2022/01/03 02:36:19;;;;;;;7.38;4.15;;;;;;;8.77;100.00;98815.63;5061077;28;20040;-77
2022/01/03 02:39:04;;;;;;;8.23;4.38;;;;;;;8.74;100.00;98802.66;5074909;28;20040;-77
2022/01/03 02:41:49;;;;;;;7.82;3.88;;;;;;;8.81;100.00;98806.81;5060936;28;20048;-77
2022/01/03 02:44:34;;;;;;;6.35;3.13;;;;;;;8.74;100.00;98803.56;5074840;28;20094;-77
2022/01/03 02:47:22;;;;;;;9.23;4.20;;;;;;;8.80;100.00;98811.16;5075587;28;20040;-77
2022/01/03 02:50:09;;;;;;;7.00;3.97;;;;;;;8.90;100.00;98811.69;5060841;28;20044;-77
2022/01/03 02:52:55;;;;;;;6.75;3.75;;;;;;;8.83;100.00;98805.81;5060685;28;20052;-77
2022/01/03 02:55:41;;;;;;;6.90;4.00;;;;;;;8.94;100.00;98810.72;5060718;28;20040;-77
2022/01/03 02:58:25;;;;;;;8.10;4.28;;;;;;;8.79;100.00;98803.38;5074707;28;20048;-77
2022/01/03 03:01:10;;;;;;;9.90;4.10;;;;;;;8.78;100.00;98801.69;5074691;28;20356;-77
2022/01/03 03:03:59;;;;;;;5.47;3.42;;;;;;;8.81;100.00;98802.44;5061184;28;20049;-77
2022/01/03 03:06:44;;;;;;;8.20;4.38;;;;;;;8.60;100.00;98782.25;5075425;28;20094;-77
2022/01/03 03:09:29;;;;;;;7.47;4.15;;;;;;;8.61;100.00;98783.94;5075372;28;20118;-77
2022/01/03 03:12:14;;;;;;;8.93;4.38;;;;;;;8.54;100.00;98780.69;5074615;28;20417;-77
2022/01/03 03:14:58;;;;;;;7.75;4.30;;;;;;;8.45;100.00;98773.19;5074589;28;20041;-77
2022/01/03 03:17:44;;;;;;;9.07;4.80;;;;;;;8.40;100.00;98783.75;5074573;28;20044;-77
2022/01/03 03:20:31;;;;;;;5.72;4.05;;;;;;;8.22;100.00;98760.81;5075296;28;20112;-77
2022/01/03 03:23:16;;;;;;;7.10;4.25;;;;;;;8.20;100.00;98776.53;5060447;28;20353;-77
2022/01/03 03:26:01;;;;;;;8.52;5.65;;;;;;;8.03;100.00;98763.19;5075228;28;20116;-77
2022/01/03 03:28:45;;;;;;;8.18;4.22;;;;;;;7.96;100.00;98779.91;5075387;28;20380;-77
2022/01/03 03:31:30;;;;;;;8.50;4.07;;;;;;;7.94;100.00;98781.72;5077962;28;20075;-77
2022/01/03 03:34:15;;;;;;;7.70;4.47;;;;;;;7.97;100.00;98790.31;5064021;28;20032;-77
2022/01/03 03:36:59;;;;;;;6.60;3.75;;;;;;;8.02;100.00;98778.88;5077915;28;20037;-77
2022/01/03 03:39:44;;;;;;;7.47;4.47;;;;;;;8.10;100.00;98782.09;5078617;28;20058;-77
2022/01/03 03:42:29;;;;;;;7.15;4.40;;;;;;;8.05;100.00;98777.00;5077896;28;20418;-77
2022/01/03 03:45:15;;;;;;;10.57;4.13;;;;;;;8.03;100.00;98760.59;5063744;28;20069;-77
2022/01/03 03:48:01;;;;;;;6.93;3.35;;;;;;;8.09;100.00;98772.56;5077827;28;20464;-77
2022/01/03 03:50:46;;;;;;;5.93;3.85;;;;;;;8.07;100.00;98754.34;5079187;28;20044;-77
2022/01/03 03:53:32;;;;;;;7.15;4.13;;;;;;;8.07;100.00;98756.13;5083597;28;20048;-77
2022/01/03 03:56:18;;;;;;;4.93;3.28;;;;;;;8.03;100.00;98744.94;5069713;28;20044;-77
2022/01/03 03:59:03;;;;;;;6.25;3.55;;;;;;;8.10;100.00;98761.25;5083607;28;20500;-78
2022/01/03 04:01:47;;;;;;;6.43;3.33;;;;;;;8.05;100.00;98756.16;5083441;28;20440;-78
2022/01/03 04:04:32;;;;;;;7.43;4.10;;;;;;;7.89;100.00;98726.25;5098331;28;20040;-78
2022/01/03 04:07:16;;;;;;;7.43;4.13;;;;;;;7.98;100.00;98754.66;5083488;28;20495;-78
2022/01/03 04:10:06;;;;;;;10.65;4.70;;;;;;;8.07;100.00;98756.13;5111972;28;20044;-78
2022/01/03 04:12:51;;;;;;;12.10;6.10;;;;;;;7.93;100.00;98757.41;5083527;28;20112;-78
2022/01/03 04:15:37;;;;;;;11.88;6.18;;;;;;;7.92;100.00;98742.63;5111801;28;20115;-78
2022/01/03 04:18:22;;;;;;;9.65;5.20;;;;;;;7.91;100.00;98747.91;5083300;28;20051;-78
2022/01/03 04:21:07;;;;;;;11.68;6.10;;;;;;;7.89;100.00;98740.13;5069058;28;20040;-79
2022/01/03 04:23:52;;;;;;;10.85;5.63;;;;;;;7.96;100.00;98741.66;5097990;28;20044;-78
2022/01/03 04:26:39;;;;;;;13.45;5.63;;;;;;;8.00;100.00;98733.75;5082931;28;20166;-78
2022/01/03 04:29:24;;;;;;;12.57;6.32;;;;;;;7.86;100.00;98721.13;5082883;28;20066;-78
2022/01/03 04:32:10;;;;;;;10.77;6.10;;;;;;;7.92;100.00;98719.19;5066049;28;20052;-77
2022/01/03 04:34:55;;;;;;;10.77;5.63;;;;;;;7.91;100.00;98721.84;5082976;28;20440;-78
2022/01/03 04:37:39;;;;;;;15.25;7.35;;;;;;;7.90;100.00;98700.13;5111341;28;20059;-78
2022/01/03 04:40:24;;;;;;;15.27;7.65;;;;;;;7.91;100.00;98698.38;5082290;28;20044;-78
2022/01/03 04:43:09;;;;;;;15.40;7.05;;;;;;;7.88;100.00;98709.75;5082761;28;20040;-78
2022/01/03 04:45:57;;;;;;;15.20;7.43;;;;;;;7.81;100.00;98678.72;5082635;28;20048;-78
2022/01/03 04:48:42;;;;;;;13.10;6.70;;;;;;;7.90;100.00;98678.44;5068409;28;20036;-79
2022/01/03 04:51:26;;;;;;;20.20;6.70;;;;;;;7.89;100.00;98676.72;5084848;28;20067;-78
2022/01/03 04:54:10;;;;;;;19.13;6.05;;;;;;;7.99;100.00;98662.47;5084702;28;20436;-78
2022/01/03 04:56:59;;;;;;;15.25;5.75;;;;;;;8.02;100.00;98662.38;5066074;28;20056;-78
2022/01/03 04:59:45;;;;;;;12.48;6.28;;;;;;;7.95;100.00;98672.16;5082564;28;20040;-77
2022/01/03 05:02:30;;;;;;;10.57;5.68;;;;;;;7.95;100.00;98640.84;5068270;28;20040;-77
2022/01/03 05:05:17;;;;;;;12.50;4.68;;;;;;;8.03;100.00;98656.28;5068485;28;20043;-78
2022/01/03 05:08:01;;;;;;;11.88;5.50;;;;;;;8.12;100.00;98650.72;5110753;28;20040;-77
2022/01/03 05:10:46;;;;;;;9.80;5.20;;;;;;;8.03;100.00;98645.00;5097162;28;20450;-77
2022/01/03 05:13:31;;;;;;;10.40;5.32;;;;;;;8.00;100.00;98629.44;5096928;28;20044;-77
2022/01/03 05:16:16;;;;;;;8.82;4.80;;;;;;;8.08;100.00;98625.66;5097200;28;20044;-78
2022/01/03 05:19:01;;;;;;;10.35;4.47;;;;;;;8.10;100.00;98613.44;5068036;28;20044;-77
2022/01/03 05:21:47;;;;;;;9.95;5.32;;;;;;;8.15;100.00;98610.66;5081906;28;20066;-76
2022/01/03 05:24:34;;;;;;;10.68;5.50;;;;;;;8.20;100.00;98613.97;5096956;28;20039;-77
2022/01/03 05:27:19;;;;;;;10.45;4.47;;;;;;;8.09;100.00;98603.91;5081797;28;20044;-76
2022/01/03 05:30:04;;;;;;;9.13;4.43;;;;;;;8.16;100.00;98610.63;5067720;28;20043;-77
2022/01/03 05:32:50;;;;;;;6.22;3.70;;;;;;;8.20;100.00;98633.06;5096209;28;20336;-77
2022/01/03 05:35:35;;;;;;;7.03;4.45;;;;;;;8.13;100.00;98628.13;5110189;28;20048;-77
2022/01/03 05:38:20;;;;;;;8.55;4.38;;;;;;;8.19;100.00;98634.00;5067628;28;20059;-77
2022/01/03 05:41:04;;;;;;;5.88;4.03;;;;;;;8.13;100.00;98623.75;5081657;28;20399;-77
2022/01/03 05:43:49;;;;;;;7.68;4.20;;;;;;;8.12;100.00;98615.97;5081688;28;20048;-77
2022/01/03 05:46:34;;;;;;;10.02;4.50;;;;;;;8.17;100.00;98635.78;5067445;28;20431;-77
2022/01/03 05:49:18;;;;;;;5.22;3.45;;;;;;;8.19;100.00;98623.56;5091192;28;20064;-77
2022/01/03 05:52:04;;;;;;;10.27;5.20;;;;;;;8.24;100.00;98633.81;5100754;28;20356;-77
2022/01/03 05:54:49;;;;;;;8.93;4.38;;;;;;;8.25;100.00;98639.88;5087481;28;20047;-76
2022/01/03 05:57:34;;;;;;;8.75;4.60;;;;;;;8.19;100.00;98633.13;5101648;28;20043;-76
2022/01/03 06:00:22;;;;;;;9.77;4.03;;;;;;;8.23;100.00;98639.94;5130629;27;20044;-76
2022/01/03 06:03:07;;;;;;;7.28;4.15;;;;;;;8.25;100.00;98650.31;5101561;28;20480;-76
2022/01/03 06:08:44;;;;;;;9.38;4.43;;;;;;;8.31;100.00;98653.56;5116487;28;20040;-76
2022/01/03 06:11:29;;;;;;;10.63;5.38;;;;;;;8.35;100.00;98655.19;5130223;27;20090;-76
2022/01/03 06:14:16;;;;;;;9.52;4.25;;;;;;;8.37;100.00;98665.56;5087204;28;20416;-76
2022/01/03 06:17:01;;;;;;;6.82;3.25;;;;;;;8.41;100.00;98669.78;5087220;28;20143;-76
2022/01/03 06:19:48;;;;;;;6.13;2.88;;;;;;;8.47;100.00;98680.03;5087575;28;20043;-76
2022/01/03 06:22:33;;;;;;;4.57;2.53;;;;;;;8.42;100.00;98669.75;5130140;28;20039;-76
2022/01/03 06:25:19;;;;;;;7.10;2.40;;;;;;;8.48;100.00;98680.88;5101375;28;20163;-77
2022/01/03 06:28:08;;;;;;;5.32;2.53;;;;;;;8.54;100.00;98678.91;5101285;28;20039;-77
2022/01/03 06:30:57;;;;;;;;;;;;;;;8.50;100.00;98671.25;5101668;28;20047;-77
2022/01/03 06:33:42;;;;;;;3.97;1.80;;;;;;;8.47;100.00;98658.31;5086935;28;19920;-76
2022/01/03 06:36:28;;;;;;;3.85;1.73;;;;;;;8.50;100.00;98666.88;5101231;28;20043;-77
2022/01/03 06:39:14;;;;;;;4.05;1.65;;;;;;;8.51;100.00;98665.97;5101169;28;20047;-76
2022/01/03 06:41:59;;;;;;;4.75;1.60;;;;;;;8.44;100.00;98682.75;5087083;28;20352;-76
2022/01/03 06:44:45;;;;;;;1.75;1.33;;;;;;;8.54;100.00;98681.50;5086917;28;20385;-77
2022/01/03 06:47:30;;;;;;;2.92;0.93;;;;;;;8.48;100.00;98673.91;5084226;28;20190;-76
2022/01/03 06:50:14;;;;;;;1.42;1.00;;;;;;;8.62;100.00;98683.88;5086919;28;20051;-76
2022/01/03 06:52:59;;;;;;;2.15;1.45;;;;;;;8.62;100.00;98676.91;5060811;28;20052;-76
2022/01/03 06:55:44;;;;;;;1.50;0.60;;;;;;;8.57;100.00;98663.13;5060410;28;20083;-76
2022/01/03 06:58:29;;;;;;;4.47;1.67;;;;;;;8.70;100.00;98686.22;5060804;28;20464;-76
2022/01/03 07:01:13;;;;;;;1.98;1.10;;;;;;;8.76;100.00;98684.22;5074631;28;20112;-76
2022/01/03 07:03:59;;;;;;;1.45;1.10;;;;;;;8.80;100.00;98687.59;5063426;28;20040;-76
2022/01/03 07:06:44;;;;;;;4.35;1.45;;;;;;;8.59;100.00;98669.16;5078897;28;20452;-76
2022/01/03 07:09:29;;;;;;;4.55;1.80;;;;;;;8.52;100.00;98674.66;5077677;28;20063;-77
2022/01/03 07:12:13;;;;;;;4.00;1.90;;;;;;;8.63;100.00;98698.63;5077954;28;20449;-76
2022/01/03 07:20:47;;;;;;;3.58;1.27;;;;;;;8.74;100.00;98698.25;5079093;28;20357;-76
2022/01/03 07:23:33;;;;;;;5.75;1.80;;;;;;;8.72;100.00;98700.91;5078535;28;20048;-76
2022/01/03 07:26:18;;;;;;;4.88;0.95;;;;;;;8.88;100.00;98709.91;5079433;28;20417;-76
2022/01/03 07:29:02;;;;;;;3.65;1.65;;;;;;;8.79;100.00;98698.94;5078606;28;20045;-76
2022/01/03 07:31:47;;;;;;;2.30;1.23;;;;;;;8.95;100.00;98717.53;5077998;28;20444;-76
2022/01/03 07:34:31;;;;;;;5.15;2.50;;;;;;;8.92;100.00;98713.25;5078332;28;20036;-76
2022/01/03 07:37:16;;;;;;;4.85;2.88;;;;;;;8.95;100.00;98709.69;5078691;28;20415;-77
2022/01/03 07:40:00;;;;;;;92.70;47.88;;;;;;;9.00;100.00;98728.66;5078471;28;20044;-83
2022/01/03 07:42:45;;;;;;;77.35;35.55;;;;;;;8.91;100.00;98722.03;5077958;28;20127;-86
2022/01/03 07:45:30;;;;;;;27.08;15.48;;;;;;;8.95;100.00;98721.00;5076616;28;20048;-80
2022/01/03 07:48:14;;;;;;;17.63;12.05;;;;;;;8.94;100.00;98713.19;5075879;28;20065;-80
2022/01/03 07:50:58;;;;;;;3.40;2.20;;;;;;;9.05;100.00;98717.13;5083704;28;20412;-80
2022/01/03 07:53:43;;;;;;;14.32;11.38;;;;;;;9.05;100.00;98709.31;5101382;28;20040;-80
2022/01/03 07:56:27;;;;;;;15.80;10.48;;;;;;;9.21;100.00;98714.81;5097398;28;20040;-80
2022/01/03 07:59:12;;;;;;;4.63;2.75;;;;;;;9.11;100.00;98713.47;5097492;28;20082;-80
2022/01/03 08:01:58;;;;;;;7.35;5.70;;;;;;;9.30;100.00;98717.09;5116354;28;20115;-80
2022/01/03 08:04:43;;;;;;;13.35;5.15;;;;;;;9.14;100.00;98705.53;5101156;28;20423;-80
2022/01/03 08:07:27;;;;;;;6.78;2.30;;;;;;;9.12;100.00;98705.56;5115769;28;20054;-83
2022/01/03 08:10:14;;;;;;;19.75;10.77;;;;;;;9.28;100.00;98703.22;5116807;28;20070;-79
2022/01/03 08:12:58;;;;;;;6.95;4.72;;;;;;;9.28;100.00;98702.38;5101736;28;20048;-80
2022/01/03 08:15:43;;;;;;;10.10;6.82;;;;;;;9.16;100.00;98677.56;5102646;28;20035;-79
2022/01/03 08:18:28;;;;;;;4.70;2.22;;;;;;;9.31;100.00;98703.13;5103723;28;20035;-81
2022/01/03 08:21:14;;;;;;;5.65;2.63;;;;;;;9.38;100.00;98702.91;5118560;28;20043;-81
2022/01/03 08:23:58;;;;;;;10.55;3.95;;;;;;;9.32;100.00;98683.91;5089142;28;20431;-83
2022/01/03 08:26:42;;;;;;;8.00;4.00;;;;;;;9.38;100.00;98684.59;5118871;28;20371;-80
2022/01/03 08:29:27;;;;;;;10.85;5.60;;;;;;;9.33;100.00;98687.41;5103347;28;20035;-81
2022/01/03 08:32:12;;;;;;;4.95;1.50;;;;;;;9.43;100.00;98683.53;5117918;28;20039;-79
2022/01/03 08:34:59;;;;;;;4.07;1.20;;;;;;;9.46;100.00;98686.03;5085046;28;20443;-81
2022/01/03 08:37:44;;;;;;;4.55;2.05;;;;;;;9.53;100.00;98663.13;5087063;28;20035;-81
2022/01/03 08:40:28;;;;;;;4.55;1.80;;;;;;;9.43;100.00;98680.06;5087056;28;20062;-79
2022/01/03 08:43:12;;;;;;;13.90;5.45;;;;;;;9.44;100.00;98687.84;5117405;28;20047;-79
2022/01/03 08:45:57;;;;;;;4.22;1.60;;;;;;;9.46;100.00;98680.81;5089177;28;20420;-80
2022/01/03 08:48:41;;;;;;;4.20;2.15;;;;;;;9.55;100.00;98693.53;5088643;28;20066;-79
2022/01/03 08:51:25;;;;;;;8.63;4.05;;;;;;;9.48;100.00;98671.13;5102751;28;20051;-80
2022/01/03 08:54:10;;;;;;;9.48;3.47;;;;;;;9.50;100.00;98665.84;5088047;28;20040;-80
2022/01/03 08:56:55;;;;;;;11.07;3.45;;;;;;;9.63;100.00;98687.13;5086515;28;20039;-80
2022/01/03 08:59:39;;;;;;;7.05;2.70;;;;;;;9.71;100.00;98693.75;5115163;28;20047;-79
2022/01/03 09:02:24;;;;;;;7.93;2.72;;;;;;;9.68;100.00;98691.25;5100822;28;20040;-79
2022/01/03 09:05:08;;;;;;;9.05;3.95;;;;;;;9.70;100.00;98692.06;5100762;28;20097;-79
2022/01/03 09:07:53;;;;;;;8.73;3.15;;;;;;;9.52;100.00;98674.47;5100749;28;20067;-79
2022/01/03 09:10:39;;;;;;;7.85;3.30;;;;;;;9.73;100.00;98707.63;5130717;27;20341;-79
2022/01/03 09:13:23;;;;;;;9.73;4.40;;;;;;;9.72;100.00;98686.78;5088678;28;20397;-78
2022/01/03 09:16:08;;;;;;;7.82;2.83;;;;;;;9.67;100.00;98704.41;5102263;28;20036;-79
2022/01/03 09:18:52;;;;;;;5.57;2.80;;;;;;;9.69;100.00;98715.66;5102703;28;20039;-79
2022/01/03 09:21:37;;;;;;;5.70;1.38;;;;;;;9.69;100.00;98700.81;5131127;27;20136;-78
2022/01/03 09:24:30;;;;;;;14.90;4.57;;;;;;;9.67;100.00;98704.41;5088020;28;20046;-79
2022/01/03 09:30:20;;;;;;;6.88;1.88;;;;;;;9.65;100.00;98728.00;5102413;28;20055;-78
2022/01/03 09:33:05;;;;;;;5.80;1.60;;;;;;;9.58;100.00;98731.75;5117737;28;20423;-78
2022/01/03 09:35:51;;;;;;;6.40;2.00;;;;;;;9.55;100.00;98735.34;5102615;28;20039;-78
2022/01/03 09:38:36;;;;;;;14.10;4.20;;;;;;;9.44;100.00;98740.09;5117130;28;20039;-79
2022/01/03 09:41:23;;;;;;;6.03;2.20;;;;;;;9.33;100.00;98743.13;5087684;28;20055;-77
2022/01/03 09:44:11;;;;;;;6.65;1.65;;;;;;;9.22;100.00;98734.81;5087735;28;20047;-79
2022/01/03 09:47:00;;;;;;;3.20;1.27;;;;;;;9.28;100.00;98741.59;5087697;28;20035;-78
2022/01/03 09:49:45;;;;;;;6.65;3.67;;;;;;;9.23;100.00;98747.00;5102340;28;20043;-78
2022/01/03 09:52:30;;;;;;;9.02;2.13;;;;;;;9.17;100.00;98765.50;5087317;28;20059;-78
2022/01/03 09:55:17;;;;;;;4.20;1.73;;;;;;;9.03;100.00;98768.56;5116787;28;20039;-79
2022/01/03 09:58:02;;;;;;;11.50;4.22;;;;;;;8.96;100.00;98768.84;5102083;28;20113;-79
2022/01/03 10:00:47;;;;;;;6.72;2.83;;;;;;;8.94;100.00;98754.97;5130489;27;20046;-79
2022/01/03 10:03:35;;;;;;;6.90;2.17;;;;;;;8.81;100.00;98772.88;5101978;28;20032;-79
2022/01/03 10:06:20;;;;;;;6.60;3.42;;;;;;;8.90;100.00;98767.28;5101681;28;20044;-79
2022/01/03 10:09:05;;;;;;;6.32;2.38;;;;;;;8.83;100.00;98751.00;5087894;28;20063;-78
2022/01/03 10:11:50;;;;;;;4.63;1.35;;;;;;;8.81;100.00;98757.19;5115780;28;20050;-78
2022/01/03 10:14:34;;;;;;;5.28;1.95;;;;;;;8.63;100.00;98785.63;5087271;28;20329;-79
2022/01/03 10:17:19;;;;;;;4.00;1.10;;;;;;;8.66;100.00;98801.19;5101520;28;20043;-78
2022/01/03 10:20:05;;;;;;;5.05;1.27;;;;;;;8.46;100.00;98789.69;5101724;28;20039;-80
2022/01/03 10:22:50;;;;;;;7.63;2.03;;;;;;;8.26;100.00;98775.50;5102046;28;20043;-79
2022/01/03 10:25:35;;;;;;;6.55;3.05;;;;;;;8.45;100.00;98788.84;5102076;28;20047;-78
2022/01/03 10:28:25;;;;;;;4.57;1.50;;;;;;;8.45;100.00;98791.47;5116449;28;20424;-78
2022/01/03 10:31:18;;;;;;;6.38;0.82;;;;;;;8.31;100.00;98788.38;5084624;28;20063;-79
2022/01/03 10:34:09;;;;;;;6.43;1.20;;;;;;;8.32;100.00;98795.31;5101296;28;20044;-79
2022/01/03 10:36:56;;;;;;;4.13;1.73;;;;;;;8.31;100.00;98786.63;5112968;28;20063;-78
2022/01/03 10:39:40;;;;;;;9.63;4.13;;;;;;;8.38;100.00;98803.84;5119785;28;20040;-79
2022/01/03 10:42:25;;;;;;;9.95;5.35;;;;;;;8.28;100.00;98793.69;5134454;27;20063;-80
2022/01/03 10:45:09;;;;;;;5.18;2.30;;;;;;;8.25;100.00;98810.28;5105367;28;20047;-77
2022/01/03 10:47:54;;;;;;;7.72;1.70;;;;;;;8.31;100.00;98814.47;5134556;27;20055;-83
2022/01/03 10:50:44;;;;;;;6.55;2.70;;;;;;;8.29;100.00;98829.34;5105773;28;20048;-77
2022/01/03 10:53:37;;;;;;;3.55;1.50;;;;;;;8.25;100.00;98825.09;5120335;28;20363;-80
2022/01/03 10:56:38;;;;;;;19.85;12.10;;;;;;;8.19;100.00;98832.22;5105141;28;20447;-79
2022/01/03 10:59:28;;;;;;;79.93;41.40;;;;;;;8.24;100.00;98826.00;5120770;28;20173;-77
2022/01/03 11:02:13;;;;;;;54.80;28.77;;;;;;;8.24;100.00;98833.84;5120171;28;20105;-80
2022/01/03 11:05:03;;;;;;;10.38;5.70;;;;;;;8.23;100.00;98837.34;5105033;28;20355;-79
2022/01/03 11:10:44;;;;;;;36.53;22.98;;;;;;;8.12;100.00;98827.22;5105454;28;20093;-79
2022/01/03 11:13:31;;;;;;;30.30;16.77;;;;;;;8.10;100.00;98837.72;5090863;28;20039;-79
2022/01/03 11:16:15;;;;;;;61.28;30.23;;;;;;;8.09;100.00;98817.78;5120408;28;20046;-79
2022/01/03 11:18:59;;;;;;;63.42;31.73;;;;;;;8.00;100.00;98825.03;5091027;28;20088;-79
2022/01/03 11:21:44;;;;;;;22.88;11.45;;;;;;;8.03;100.00;98832.75;5119978;28;20035;-79
2022/01/03 11:24:29;;;;;;;32.03;18.02;;;;;;;8.05;100.00;98834.38;5105224;28;20043;-79
2022/01/03 11:27:14;;;;;;;21.75;12.07;;;;;;;8.14;100.00;98830.66;5104589;28;20039;-80
2022/01/03 11:29:59;;;;;;;7.13;3.42;;;;;;;8.13;100.00;98814.16;5104871;28;20122;-80
2022/01/03 11:32:43;;;;;;;5.45;3.15;;;;;;;8.25;100.00;98809.44;5104752;28;20071;-80
2022/01/03 11:35:28;;;;;;;5.65;2.65;;;;;;;8.25;100.00;98825.09;5104653;28;20412;-80
2022/01/03 11:38:18;;;;;;;7.63;4.32;;;;;;;8.39;100.00;98822.97;5104644;28;20043;-79
2022/01/03 11:41:05;;;;;;;6.80;2.50;;;;;;;8.49;100.00;98826.13;5119376;28;20051;-80
2022/01/03 11:43:50;;;;;;;7.70;2.13;;;;;;;8.41;100.00;98828.97;5089976;28;20051;-80
2022/01/03 11:46:35;;;;;;;7.10;1.90;;;;;;;8.45;100.00;98829.72;5119345;28;20039;-79
2022/01/03 11:49:20;;;;;;;4.85;1.23;;;;;;;8.55;100.00;98837.22;5102975;28;20036;-80
2022/01/03 11:52:11;;;;;;;6.78;1.67;;;;;;;8.58;100.00;98831.03;5117382;27;20060;-83
2022/01/03 11:54:56;;;;;;;3.33;1.77;;;;;;;8.59;100.00;98827.53;5084260;28;20032;-79
2022/01/03 11:58:08;;;;;;;5.63;1.73;;;;;;;8.68;100.00;98824.63;5098508;28;20109;-77
2022/01/03 12:04:12;;;;;;;6.50;1.77;;;;;;;8.86;100.00;98825.75;5097781;28;20093;-78
2022/01/03 12:07:04;;;;;;;6.03;1.90;;;;;;;8.88;100.00;98837.03;5098158;28;20336;-82
2022/01/03 12:09:50;;;;;;;3.90;1.05;;;;;;;9.06;100.00;98836.38;5098064;28;20116;-84
2022/01/03 12:12:38;;;;;;;4.88;1.23;;;;;;;8.99;100.00;98836.66;5096607;28;20044;-83
2022/01/03 12:15:39;;;;;;;4.80;1.80;;;;;;;9.11;100.00;98847.53;5096447;28;20044;-83
2022/01/03 12:18:26;;;;;;;6.53;2.15;;;;;;;8.98;100.00;98845.41;5096561;28;20036;-84
2022/01/03 12:21:13;;;;;;;4.38;1.40;;;;;;;9.02;100.00;98855.69;5097166;28;20044;-83
2022/01/03 12:23:57;;;;;;;9.75;3.67;;;;;;;8.81;100.00;98853.81;5097166;28;20036;-83
2022/01/03 12:27:12;;;;;;;6.63;2.38;;;;;;;8.81;100.00;98869.47;5081193;28;20040;-82
2022/01/03 12:30:00;;;;;;;5.05;2.53;;;;;;;8.66;100.00;98874.28;5095497;28;20040;-83
2022/01/03 12:33:05;;;;;;;2.20;0.95;;;;;;;8.60;100.00;98868.38;5081168;28;20040;-83
2022/01/03 12:36:10;;;;;;;3.60;1.17;;;;;;;8.62;100.00;98871.81;5095978;28;20121;-83
2022/01/03 12:39:07;;;;;;;7.30;1.60;;;;;;;8.43;100.00;98871.53;5095241;28;20040;-83
2022/01/03 12:41:52;;;;;;;2.63;0.70;;;;;;;8.39;100.00;98873.38;5095333;28;20047;-83
2022/01/03 12:44:45;;;;;;;3.65;1.25;;;;;;;8.39;100.00;98881.22;5080933;28;20040;-83
2022/01/03 12:47:36;;;;;;;2.58;1.15;;;;;;;8.41;100.00;98879.41;5081769;28;20181;-83
2022/01/03 12:50:29;;;;;;;4.07;1.63;;;;;;;8.47;100.00;98877.50;5082851;28;20052;-84
2022/01/03 12:53:19;;;;;;;4.72;1.30;;;;;;;8.49;100.00;98881.78;5096699;28;20100;-82
2022/01/03 12:56:07;;;;;;;5.05;2.42;;;;;;;8.49;100.00;98857.44;5097610;28;20040;-82
2022/01/03 12:58:54;;;;;;;7.80;3.28;;;;;;;8.54;100.00;98884.25;5082383;28;20120;-81
2022/01/03 13:01:39;;;;;;;5.07;1.83;;;;;;;8.30;100.00;98851.91;5096854;28;20465;-81
2022/01/03 13:04:25;;;;;;;4.85;1.70;;;;;;;8.54;100.00;98886.84;5096892;28;20047;-80
2022/01/03 13:07:09;;;;;;;9.07;2.47;;;;;;;8.57;100.00;98885.00;5082275;28;20040;-80
2022/01/03 13:09:54;;;;;;;6.60;3.33;;;;;;;8.68;100.00;98886.41;5097075;28;20482;-83
2022/01/03 13:12:43;;;;;;;7.88;3.53;;;;;;;8.70;100.00;98901.13;5096389;28;20040;-82
2022/01/03 13:15:27;;;;;;;5.75;2.28;;;;;;;8.65;100.00;98900.44;5096966;28;20050;-81
2022/01/03 13:18:15;;;;;;;3.83;1.33;;;;;;;8.48;100.00;98887.03;5096391;28;20047;-81
2022/01/03 13:21:00;;;;;;;6.68;3.20;;;;;;;8.62;100.00;98880.50;5096485;28;20428;-82
2022/01/03 13:23:55;;;;;;;9.10;2.78;;;;;;;8.68;100.00;98897.72;5096232;28;20112;-81